OCREC2019 - STANDARD COURSE - SPRINT
OCR EUROPEAN CHAMPIONSHIPS
Organizator : Stowarzyszenie Biegów Przeszkodowych OCR Polska
Data : 2019-06-28
Miejsce : Gdynia
Dystans : 1 km
Zgłoszonych : 1363
Wystartowało : 1274
Nie ukończyło : 43
Ukończyło : 1231
Na trasie : 8
Pełne wyniki :
Uproszczone :
Klasyfikacje w punktach pomiarowych: Start | Meta
Klasyfikacja wg czasu netto.
MscZawodnikNumerKlubMiejscowośćKrajKategoriaMkatK/MCzas
netto
1km
Różn.Tempo
min/km
Tempo
km/h
     
1BRZOSKWINIA Wojciech 1239M 25-291M 2200:05:17.00 5:1711,4
2LORIS Pintarelli 1310M 25-292M 3700:05:28.95+00:00:115:2910,9
3CUENCA Aitor Garde 1248M 25-293M 4900:05:36.25+00:00:195:3610,7
4MATUSEVICH Alexsey 1234M 25-294M 5500:05:38.90+00:00:215:3810,7
5KUPIS Łukasz 1224M 25-295M 6200:05:43.90+00:00:265:4410,5
6VLAM Thijs 1275M 25-296M 6300:05:44.85+00:00:275:4510,4
7SCHINA Loris 1344M 25-297M 7600:05:51.10+00:00:345:5110,3
8VOROBOK Lukáš 1241M 25-298M 7900:05:52.05+00:00:355:5210,2
9FRANCESCHI Marco 1313M 25-299M 8600:05:52.85+00:00:355:5310,2
10TOMASIK Alan 1268M 25-2910M 9600:05:57.00+00:00:405:5710,1
11NITTIS Andrea De 1328M 25-2911M 10000:05:57.65+00:00:405:5810,1
12VANDEWALLE Billy 1227M 25-2912M 10800:06:02.05+00:00:456:029,9
13NUTIL Michal 1345M 25-2913M 11900:06:05.80+00:00:486:069,8
14MARTYIN László 1279M 25-2914M 13600:06:11.95+00:00:546:129,7
15SEMENCHENKO Vladimir 1252M 25-2915M 13800:06:12.55+00:00:556:139,7
16JANUSZEWSKI Bartosz 1263M 25-2916M 15000:06:16.15+00:00:596:179,5
17HORWARD Adrien 1285M 25-2917M 15200:06:16.40+00:00:596:179,5
18SZCZEPANIAK Paweł 1225M 25-2918M 16300:06:20.10+00:01:036:209,5
19MACÍAS David Delgado 1335M 25-2919M 16700:06:20.35+00:01:036:209,5
20MAES Michaël 1266M 25-2920M 16800:06:21.00+00:01:046:219,4
21RACZEK Radosław 1260M 25-2921M 17200:06:21.95+00:01:046:229,4
22MUSSCHE Frans 1274M 25-2922M 17400:06:22.45+00:01:056:239,4
23GUIJARRO Victor Pezonaga 1391M 25-2923M 17900:06:23.95+00:01:066:249,4
24MÓWIŃSKI Patryk 1277M 25-2924M 18400:06:25.30+00:01:086:259,4
25POŚPIECH Krzysztof Pawlak 1296M 25-2925M 18800:06:25.90+00:01:086:259,4
26CAVICCHIOLO Luca 1355M 25-2926M 19000:06:26.10+00:01:096:269,3
27ZAKOLODKIN Roman 1230M 25-2927M 19100:06:26.80+00:01:096:279,3
28BLANKENBURGH David 1317M 25-2928M 19300:06:27.40+00:01:106:279,3
29JAGODZIŃSKI Karol 1293M 25-2929M 19500:06:28.25+00:01:116:289,3
30PIANO Andrea Del 1254M 25-2930M 19600:06:28.35+00:01:116:289,3
31MĘDYGRAŁ Krystian 1290M 25-2931M 19800:06:28.50+00:01:116:299,3
32DIMITRY Dotrimont 1367M 25-2932M 20300:06:29.75+00:01:126:309,2
33ATAZ Daniel Blanco 1341M 25-2933M 20500:06:30.80+00:01:136:319,2
34SENTEN Simon Van 1298M 25-2934M 21000:06:32.40+00:01:156:339,2
35ZAWILIŃSKI Mateusz 1351M 25-2935M 21300:06:33.35+00:01:166:349,1
36VIKTOROVICH Gruzdev Vladimir 1235M 25-2936M 21500:06:34.55+00:01:176:349,1
37GUIBERT Romain 1245M 25-2937M 21700:06:35.40+00:01:186:359,1
38MARTIN Darren 1311M 25-2938M 22500:06:38.75+00:01:216:389,0
39HANYK Lukáš 1231M 25-2939M 23200:06:41.75+00:01:246:429,0
40LARSSON Johannes 1327M 25-2940M 23600:06:42.65+00:01:256:429,0
41MARCO Bischof 1338M 25-2941M 24100:06:43.95+00:01:266:448,9
42VEPŘEK Martin 1249M 25-2942M 24300:06:44.85+00:01:276:448,9
43TIMMERMANS Geert 1280M 25-2943M 24900:06:46.95+00:01:296:478,8
44MANTYCKI Rafał 1329M 25-2944M 25300:06:49.55+00:01:326:508,8
45DIETRICH Raphaël 1371M 25-2945M 25600:06:50.55+00:01:336:518,8
46SCHWEIGERT Matthias 1377M 25-2946M 26000:06:52.35+00:01:356:528,7
47LEJK Beniamin 1357M 25-2947M 26500:06:54.30+00:01:376:548,7
48CRESPO Antonio Rubio 1303M 25-2948M 26800:06:54.95+00:01:376:558,7
49PRYKOWSKI Tomasz 1256M 25-2949M 27900:06:59.00+00:01:426:598,6
50VERHEUL Paul Pieter Cornelis 1316M 25-2950M 28200:06:59.65+00:01:426:598,6
51PETERKA Tomáš 1368M 25-2951M 28500:07:00.05+00:01:437:008,6
52GRZONDKO Mateusz 1272M 25-2952M 28900:07:00.25+00:01:437:008,6
53ELSGART Niklas 1352M 25-2953M 29300:07:02.45+00:01:457:028,5
54JUSTESEN Simon 1384M 25-2954M 30200:07:04.65+00:01:477:058,5
55TOMAKA Tomasz 1284M 25-2955M 30700:07:05.15+00:01:487:058,5
56VERLAAT Kees 1388M 25-2956M 31800:07:13.00+00:01:567:138,3
57YAROSLAV Slavushchev 1236M 25-2957M 32200:07:14.45+00:01:577:158,3
58FLEISCHHAUER Felix 1312M 25-2958M 33200:07:18.40+00:02:017:198,2
59WITEK Paweł 1373M 25-2959M 34400:07:25.00+00:02:087:258,1
60REZNIK Anton 1243M 25-2960M 35100:07:28.50+00:02:117:298,0
61LLAPASSET Victor 1314M 25-2961M 35700:07:31.45+00:02:147:318,0
62MAKAROV Andrei 1246M 25-2962M 35900:07:31.75+00:02:147:328,0
63LARSSON Toni 1378M 25-2963M 36300:07:32.95+00:02:157:337,9
64KEANE Josh 1278M 25-2964M 36600:07:33.70+00:02:167:347,9
65ROSECKÝ Patrik 1251M 25-2965M 37200:07:37.90+00:02:207:387,9
66LEGANDER Simon 1324M 25-2966M 37500:07:39.55+00:02:227:407,8
67JACIÓW Paweł 1389M 25-2967M 38600:07:43.95+00:02:267:447,8
68ZHVIKOV Oleg 1321M 25-2968M 39300:07:48.65+00:02:317:487,7
69LENOIR Cyril 1283M 25-2969M 39800:07:52.85+00:02:357:537,6
70HANSEN Jonas 1237M 25-2970M 39900:07:53.75+00:02:367:537,6
71PELUSI Jacopo 1381M 25-2971M 40700:08:01.05+00:02:448:017,5
72WAKTER Jacob 1385M 25-2972M 41400:08:06.15+00:02:498:067,4
73BURANI Cristian 1369M 25-2973M 41800:08:10.65+00:02:538:117,3
74LINDSTRÖM Mattias 1242M 25-2974M 41900:08:11.35+00:02:548:127,3
75HORÁK Jaromír 1362M 25-2975M 42200:08:12.55+00:02:558:127,3
76ZIELIŃSKI Bartosz 1350M 25-2976M 42700:08:21.10+00:03:048:217,2
77TRUJILLO Fernando Pajuelo 1287M 25-2977M 43300:08:28.20+00:03:118:287,1
78FIGUEIREDO Rui Pedro Cruz 1302M 25-2978M 44400:08:44.15+00:03:278:446,9
79RODRIGUES Alexandre 1366M 25-2979M 46400:09:39.00+00:04:229:396,2
80CZERWIŃSKI Maciej 1261M 25-2980M 47602:27:19.05+02:22:02147:190,4
81PONTICELLI Luigi 1380M 25-2981M 479   
82DENTALE Armando 1379M 25-2982M 481   
Niesklasyfikowani
DNCMARTÍNEZ Rafael 1253M 25-2900:04:40.000:0012,9
DNCLÜPKE Sebastian 1304M 25-2900:04:47.250:0012,5
DNCLIESHOUT Frank Van 1258M 25-2900:05:29.800:0010,9
DNCCHRISTOPHER Bailly 1286M 25-2900:05:36.900:0010,7
DNCGANOTAKIS Emmanouil 1250M 25-2900:05:48.800:0010,3
DNCRUKATUKL Alexander 1342M 25-2900:05:51.250:0010,3
DNCKOZIOŁ Kamil 1330M 25-2900:05:52.050:0010,2
DNCPEDERSEN Peder Ejsing 1359M 25-2900:05:52.500:0010,2
DNCFISCHER Oliver 1259M 25-2900:05:55.600:0010,1
DNCPEÑA Miguel 1306M 25-2900:06:01.000:0010,0
DNCMACIEJEWSKI Krystian 1334M 25-2900:06:01.200:0010,0
DNCZIMMERMANN Till 1240M 25-2900:06:07.350:009,8
DNCHEATH Daniel 1332M 25-2900:06:12.850:009,7
DNCOCHERETIUK Andrii 1271M 25-2900:06:12.900:009,7
DNCMELIS Giacomo 1370M 25-2900:06:13.800:009,6
DNCPÉREZ Sergio Gómez 1382M 25-2900:06:14.750:009,6
DNCDESCHAMPS Emmanuel 1363M 25-2900:06:15.450:009,6
DNCČERVEŇÁK Radim 1295M 25-2900:06:18.850:009,5
DNCJOBANPUTRA Mayoor 1309M 25-2900:06:22.100:009,4
DNCSVENSSON Nicklas 1347M 25-2900:06:28.800:009,3
DNCDENIS Timakov 1228M 25-2900:06:29.750:009,2
DNCKORTHOUT Bruce 1315M 25-2900:06:34.350:009,1
DNCJOHANSEN Philip Hust 1229M 25-2900:06:35.950:009,1
DNCLEDO Adrián 1364M 25-2900:06:36.450:009,1
DNCBRORSSON Sebastian 1390M 25-2900:06:39.200:009,0
DNCWÅGAN André 1255M 25-2900:06:39.250:009,0
DNCKAUKOLA Henri 1232M 25-2900:06:41.850:009,0
DNCZALEWSKI Michał 1372M 25-2900:06:42.750:008,9
DNCTAMBURLANI Filippo 1333M 25-2900:06:47.400:008,8
DNCDMUCH Jakub 1267M 25-2900:06:47.650:008,8
DNCFELLDIN Markus 1387M 25-2900:06:48.200:008,8
DNCBUYLE Michiel 1273M 25-2900:06:48.300:008,8
DNCSCHEFER Erik 1319M 25-2900:06:48.600:008,8
DNCDUUREN Ruben Van 1294M 25-2900:06:51.700:008,7
DNCBRONS Sonny 1244M 25-2900:06:51.800:008,7
DNCMAXIMOV Andrey 1262M 25-2900:06:51.850:008,8
DNCKAMIONKA Mateusz 1269M 25-2900:06:52.450:008,7
DNCBRACCAIOLI Lorenzo 1374M 25-2900:06:54.000:008,7
DNCOSTE Maarten 1353M 25-2900:06:55.550:008,7
DNCPROCHASSON Baptiste 1265M 25-2900:06:58.300:008,6
DNCTERETA Ivan 1257M 25-2900:07:01.300:008,6
DNCRAYNAUD Jimmy 1331M 25-2900:07:02.550:008,5
DNCGIANNETTONI Lorenzo 1339M 25-2900:07:06.550:008,5
DNCWUNDERLICH Tobias 1361M 25-2900:07:09.050:008,4
DNCJOHANSSON Tom 1238M 25-2900:07:10.300:008,4
DNCSTENGER Morten 1358M 25-2900:07:10.500:008,4
DNCSANTOS Luis 1292M 25-2900:07:15.200:008,3
DNCMIKEL Marek 1386M 25-2900:07:21.750:008,2
DNCARONSSON Alexander 1301M 25-2900:07:24.350:008,1
DNCBENICEWICZ Kacper 1299M 25-2900:07:25.400:008,1
DNCNOWAK Lukasz 1354M 25-2900:07:27.000:008,1
DNCGINON Loïc 1270M 25-2900:07:27.550:008,1
DNCDAVIDSON Richard 1383M 25-2900:07:29.900:008,0
DNCBONDARENKO Andriy 1323M 25-2900:07:30.700:008,0
DNCЧИРКИН Алексей 1247M 25-2900:07:38.050:007,9
DNCMARONGIU Andrea 1322M 25-2900:07:39.800:007,8
DNCŻOŁNIEREK Wojciech 1291M 25-2900:07:45.050:007,7
DNCENDEJANN Raphael 1360M 25-2900:07:49.150:007,7
DNCJAGER Robin De 1297M 25-2900:07:49.550:007,7
DNCTIMSIT Romain 1300M 25-2900:07:56.800:007,5
DNCNAVARRO Cristian Manuel Madrid 1337M 25-2900:07:57.350:007,5
DNCMARTOS Eduardo 1346M 25-2900:07:59.200:007,5
DNCRECHENBACH Tim 1356M 25-2900:08:00.750:007,5
DNCKRITIKOS Ilias 1233M 25-2900:08:01.000:007,5
DNCBELLIDO David Fernández 1336M 25-2900:08:01.100:007,5
DNCOSTERMEIER Gabriel 1264M 25-2900:08:08.450:007,4
DNCJACOBSEN Peter 1276M 25-2900:08:14.250:007,3
DNCPHILLIPS Alastair 1326M 25-2900:08:16.700:007,3
DNCTORESÄTER Ludvig "Luddet" 1325M 25-2900:08:29.350:007,1
DNCCRISCI Marco 1340M 25-2900:09:01.300:006,7
DNCROEFFAERS Sander 1376M 25-2900:09:04.450:006,6
DNCALEXANDRE Renato 1305M 25-2900:09:05.400:006,6
DNCCHILDS Jake 1320M 25-2900:09:15.050:006,5
DNCTEJERO Javier Casado 1375M 25-2900:09:37.350:006,2
KANSTRUP Nicolai 1226M 25-29 DNF--
Znaleziono 157 wynik(ów)